createdAt,value
2022-10-12T00:01:14.031Z,16.47
2022-10-12T00:03:41.825Z,18.70
2022-10-12T00:06:22.741Z,17.67
2022-10-12T00:08:54.914Z,19.60
2022-10-12T00:11:29.185Z,14.90
2022-10-12T00:13:59.178Z,14.00
2022-10-12T00:16:31.972Z,19.33
2022-10-12T00:19:00.004Z,12.40
2022-10-12T00:21:31.302Z,16.20
2022-10-12T00:24:01.926Z,15.20
2022-10-12T00:26:30.460Z,16.93
2022-10-12T00:29:02.981Z,15.70
2022-10-12T00:31:32.655Z,15.80
2022-10-12T00:34:03.897Z,27.03
2022-10-12T00:36:36.088Z,24.10
2022-10-12T00:39:09.771Z,11.90
2022-10-12T00:41:44.636Z,14.03
2022-10-12T00:44:47.917Z,18.83
2022-10-12T00:47:33.106Z,17.43
2022-10-12T00:50:29.622Z,16.17
2022-10-12T00:53:21.582Z,16.53
2022-10-12T00:55:59.739Z,19.10
2022-10-12T00:58:31.664Z,12.40
2022-10-12T01:01:06.348Z,16.97
2022-10-12T01:03:36.588Z,15.47
2022-10-12T01:06:07.799Z,18.73
2022-10-12T01:08:37.372Z,17.33
2022-10-12T01:11:05.781Z,16.83
2022-10-12T01:13:34.144Z,17.33
2022-10-12T01:17:04.847Z,16.87
2022-10-12T01:20:09.589Z,16.20
2022-10-12T01:23:17.525Z,14.73
2022-10-12T01:26:36.035Z,17.07
2022-10-12T01:30:27.488Z,19.50
2022-10-12T01:33:41.006Z,16.13
2022-10-12T01:36:42.995Z,22.60
2022-10-12T01:39:33.454Z,14.20
2022-10-12T01:42:17.996Z,14.20
2022-10-12T01:44:46.242Z,22.83
2022-10-12T01:47:14.522Z,15.97
2022-10-12T01:49:42.468Z,20.07
2022-10-12T01:52:30.850Z,15.47
2022-10-12T01:55:45.937Z,14.77
2022-10-12T01:59:04.634Z,17.50
2022-10-12T02:02:03.836Z,16.00
2022-10-12T02:05:09.060Z,13.40
2022-10-12T02:07:52.107Z,24.73
2022-10-12T02:10:40.993Z,12.90
2022-10-12T02:13:17.292Z,17.83
2022-10-12T02:15:48.120Z,21.23
2022-10-12T02:18:22.829Z,16.77
2022-10-12T02:20:58.510Z,19.20
2022-10-12T02:23:29.483Z,14.87
2022-10-12T02:26:01.885Z,17.90
2022-10-12T02:28:36.284Z,17.07
2022-10-12T02:31:47.796Z,21.03
2022-10-12T02:34:38.467Z,15.00
2022-10-12T02:37:36.982Z,13.87
2022-10-12T02:40:45.697Z,17.10
2022-10-12T02:43:54.168Z,13.80
2022-10-12T02:46:27.225Z,16.70
2022-10-12T02:48:59.549Z,13.93
2022-10-12T02:51:30.443Z,16.63
2022-10-12T02:53:58.756Z,15.80
2022-10-12T02:56:26.452Z,15.87
2022-10-12T02:58:57.518Z,16.80
2022-10-12T03:01:25.336Z,15.83
2022-10-12T03:03:53.041Z,25.00
2022-10-12T03:06:20.742Z,17.40
2022-10-12T03:08:48.484Z,15.60
2022-10-12T03:11:16.347Z,13.50
2022-10-12T03:13:44.140Z,17.73
2022-10-12T03:16:12.852Z,14.50
2022-10-12T03:18:41.581Z,23.33
2022-10-12T03:21:10.989Z,14.50
2022-10-12T03:23:39.001Z,17.73
2022-10-12T03:26:07.824Z,12.90
2022-10-12T03:28:36.288Z,22.20
2022-10-12T03:31:04.596Z,19.23
2022-10-12T03:33:32.266Z,18.70
2022-10-12T03:35:59.889Z,19.77
2022-10-12T03:38:27.616Z,13.37
2022-10-12T03:40:55.223Z,21.70
2022-10-12T03:43:23.101Z,17.50
2022-10-12T03:45:52.472Z,24.97
2022-10-12T03:48:21.821Z,18.20
2022-10-12T03:50:53.858Z,15.97
2022-10-12T03:53:21.708Z,21.13
2022-10-12T03:55:49.545Z,16.00
2022-10-12T03:58:17.408Z,19.90
2022-10-12T04:00:46.055Z,16.60
2022-10-12T04:03:13.633Z,15.50
2022-10-12T04:05:41.931Z,16.93
2022-10-12T04:08:09.615Z,25.47
2022-10-12T04:10:37.236Z,14.63
2022-10-12T04:13:04.907Z,18.03
2022-10-12T04:15:32.574Z,16.50
2022-10-12T04:18:00.148Z,20.87
2022-10-12T04:20:28.416Z,18.17
2022-10-12T04:22:56.088Z,18.87
2022-10-12T04:25:29.150Z,20.73
2022-10-12T04:27:58.033Z,18.10
2022-10-12T04:30:25.678Z,15.47
2022-10-12T04:32:53.678Z,19.40
2022-10-12T04:35:22.829Z,16.80
2022-10-12T04:37:51.183Z,20.23
2022-10-12T04:40:19.292Z,21.60
2022-10-12T04:42:47.442Z,15.47
2022-10-12T04:45:15.699Z,20.40
2022-10-12T04:47:43.531Z,18.87
2022-10-12T04:50:11.461Z,17.20
2022-10-12T04:52:39.165Z,17.27
2022-10-12T04:55:08.483Z,14.47
2022-10-12T04:57:36.589Z,20.27
2022-10-12T05:00:07.966Z,21.33
2022-10-12T05:02:35.677Z,25.80
2022-10-12T05:05:03.521Z,20.43
2022-10-12T05:07:31.260Z,18.07
2022-10-12T05:09:58.958Z,17.23
2022-10-12T05:12:26.617Z,20.77
2022-10-12T05:14:54.281Z,14.80
2022-10-12T05:17:22.125Z,21.10
2022-10-12T05:19:49.780Z,17.57
2022-10-12T05:22:17.958Z,17.07
2022-10-12T05:24:47.992Z,18.17
2022-10-12T05:27:18.987Z,21.50
2022-10-12T05:29:46.657Z,18.00
2022-10-12T05:32:14.717Z,19.90
2022-10-12T05:34:42.457Z,20.00
2022-10-12T05:37:10.868Z,36.37
2022-10-12T05:39:38.480Z,20.37
2022-10-12T05:42:06.473Z,21.90
2022-10-12T05:44:34.378Z,17.70
2022-10-12T05:47:01.967Z,21.40
2022-10-12T05:49:30.917Z,19.40
2022-10-12T05:51:58.694Z,18.87
2022-10-12T05:54:29.224Z,21.00
2022-10-12T05:56:57.316Z,18.50
2022-10-12T05:59:25.249Z,18.77
2022-10-12T06:01:53.011Z,17.73
2022-10-12T06:04:21.013Z,18.00
2022-10-12T06:06:49.323Z,19.10
2022-10-12T06:09:16.969Z,17.80
2022-10-12T06:11:44.616Z,18.03
2022-10-12T06:14:12.222Z,27.67
2022-10-12T06:16:39.873Z,25.47
2022-10-12T06:19:10.669Z,21.00
2022-10-12T06:21:38.919Z,22.90
2022-10-12T06:24:06.984Z,21.67
2022-10-12T06:26:34.833Z,22.40
2022-10-12T06:29:03.490Z,30.77
2022-10-12T06:31:32.507Z,18.20
2022-10-12T06:34:00.589Z,19.00
2022-10-12T06:36:28.286Z,39.07
2022-10-12T06:38:56.328Z,31.13
2022-10-12T06:41:24.022Z,26.80
2022-10-12T06:43:51.780Z,23.33
2022-10-12T06:46:19.327Z,19.50
2022-10-12T06:48:47.007Z,25.00
2022-10-12T06:51:14.617Z,23.23
2022-10-12T06:53:42.220Z,28.50
2022-10-12T06:56:12.164Z,26.30
2022-10-12T06:58:40.619Z,24.63
2022-10-12T07:01:10.934Z,23.37
2022-10-12T07:03:38.709Z,19.60
2022-10-12T07:06:14.164Z,22.40
2022-10-12T07:08:43.494Z,19.63
2022-10-12T07:11:13.973Z,17.20
2022-10-12T07:13:42.262Z,23.33
2022-10-12T07:16:09.952Z,23.50
2022-10-12T07:18:40.243Z,17.67
2022-10-12T07:21:08.018Z,17.23
2022-10-12T07:23:41.325Z,17.73
2022-10-12T07:26:12.830Z,35.80
2022-10-12T07:28:40.766Z,23.50
2022-10-12T07:31:10.147Z,30.20
2022-10-12T07:33:39.013Z,25.33
2022-10-12T07:36:20.850Z,25.63
2022-10-12T07:38:50.448Z,23.43
2022-10-12T07:41:19.333Z,23.70
2022-10-12T07:43:48.046Z,21.10
2022-10-12T07:46:15.899Z,24.33
2022-10-12T07:48:48.938Z,21.07
2022-10-12T07:51:20.594Z,25.67
2022-10-12T07:53:51.447Z,20.70
2022-10-12T07:56:21.201Z,11.83
2022-10-12T07:59:00.265Z,19.40
2022-10-12T08:01:33.257Z,13.60
2022-10-12T08:04:02.985Z,11.77
2022-10-12T08:06:35.126Z,10.67
2022-10-12T08:09:06.479Z,16.50
2022-10-12T08:11:45.441Z,11.17
2022-10-12T08:14:19.249Z,12.63
2022-10-12T08:16:49.634Z,10.60
2022-10-12T08:19:20.069Z,10.00
2022-10-12T08:21:51.688Z,10.87
2022-10-12T08:24:20.829Z,9.47
2022-10-12T08:26:50.630Z,15.67
2022-10-12T08:29:19.724Z,11.53
2022-10-12T08:31:50.832Z,13.80
2022-10-12T08:34:20.913Z,11.93
2022-10-12T08:36:52.533Z,11.50
2022-10-12T08:39:21.623Z,12.40
2022-10-12T08:42:41.298Z,15.90
2022-10-12T08:45:59.176Z,11.07
2022-10-12T08:48:50.652Z,10.10
2022-10-12T08:51:30.175Z,12.37
2022-10-12T08:54:13.793Z,14.30
2022-10-12T08:56:44.306Z,10.37
2022-10-12T08:59:20.721Z,8.33
2022-10-12T09:02:53.436Z,7.90
2022-10-12T09:05:50.777Z,12.60
2022-10-12T09:09:01.093Z,9.70
2022-10-12T09:12:14.049Z,7.93
2022-10-12T09:14:46.144Z,7.97
2022-10-12T09:17:57.186Z,11.60
2022-10-12T09:20:50.718Z,10.97
2022-10-12T09:23:44.919Z,13.67
2022-10-12T09:26:35.095Z,9.50
2022-10-12T09:29:27.516Z,8.70
2022-10-12T09:32:40.264Z,8.20
2022-10-12T09:35:16.516Z,10.50
2022-10-12T09:37:54.723Z,8.63
2022-10-12T09:40:33.609Z,14.50
2022-10-12T09:43:06.808Z,9.50
2022-10-12T09:45:38.946Z,11.60
2022-10-12T09:48:25.787Z,16.73
2022-10-12T09:51:02.835Z,13.40
2022-10-12T09:53:55.340Z,16.80
2022-10-12T09:56:50.764Z,15.53
2022-10-12T09:59:46.199Z,17.80
2022-10-12T10:02:27.994Z,16.83
2022-10-12T10:05:23.557Z,12.63
2022-10-12T10:07:53.321Z,12.40
2022-10-12T10:10:30.058Z,12.80
2022-10-12T10:13:04.291Z,15.47
2022-10-12T10:15:39.859Z,15.67
2022-10-12T10:18:57.043Z,8.73
2022-10-12T10:21:40.956Z,11.90
2022-10-12T10:24:32.879Z,17.30
2022-10-12T10:27:08.613Z,10.13
2022-10-12T10:29:46.125Z,11.43
2022-10-12T10:32:29.841Z,12.47
2022-10-12T10:35:14.774Z,12.17
2022-10-12T10:37:57.619Z,16.43
2022-10-12T10:40:36.673Z,8.50
2022-10-12T10:43:31.663Z,12.70
2022-10-12T10:46:04.826Z,15.80
2022-10-12T10:49:07.575Z,14.00
2022-10-12T10:51:58.458Z,7.73
2022-10-12T10:54:41.114Z,19.47
2022-10-12T10:57:23.667Z,10.60
2022-10-12T11:00:33.358Z,8.83
2022-10-12T11:03:06.896Z,11.03
2022-10-12T11:06:40.950Z,12.57
2022-10-12T11:09:46.454Z,11.17
2022-10-12T11:12:53.168Z,9.27
2022-10-12T11:16:02.914Z,10.37
2022-10-12T11:18:59.212Z,7.60
2022-10-12T11:22:08.278Z,10.80
2022-10-12T11:25:21.856Z,12.20
2022-10-12T11:27:53.947Z,12.20
2022-10-12T11:30:39.758Z,8.03
2022-10-12T11:33:30.274Z,11.27
2022-10-12T11:36:00.145Z,17.00
2022-10-12T11:39:13.532Z,13.53
2022-10-12T11:42:16.850Z,10.37
2022-10-12T11:44:49.025Z,6.83
2022-10-12T11:47:49.203Z,6.00
2022-10-12T11:50:45.152Z,10.33
2022-10-12T11:54:00.311Z,8.40
2022-10-12T11:56:47.862Z,11.80
2022-10-12T11:59:59.939Z,9.50
2022-10-12T12:02:53.473Z,8.20
2022-10-12T12:05:33.124Z,8.97
2022-10-12T12:08:01.256Z,5.00
2022-10-12T12:10:35.613Z,7.20
2022-10-12T12:13:18.521Z,6.83
2022-10-12T12:15:48.290Z,11.33
2022-10-12T12:18:35.393Z,7.27
2022-10-12T12:21:10.894Z,7.13
2022-10-12T12:23:55.266Z,6.33
2022-10-12T12:26:31.369Z,8.57
2022-10-12T12:29:27.440Z,8.73
2022-10-12T12:32:00.398Z,5.87
2022-10-12T12:34:29.392Z,7.77
2022-10-12T12:36:58.576Z,6.33
2022-10-12T12:39:35.853Z,5.20
2022-10-12T12:42:10.923Z,8.90
2022-10-12T12:44:45.076Z,12.37
2022-10-12T12:50:36.131Z,8.67
2022-10-12T12:53:22.238Z,6.13
2022-10-12T12:56:28.718Z,7.63
2022-10-12T13:00:07.488Z,5.83
2022-10-12T13:03:15.215Z,5.60
2022-10-12T13:06:36.263Z,4.77
2022-10-12T13:09:51.454Z,8.00
2022-10-12T13:13:15.272Z,6.87
2022-10-12T13:16:05.834Z,4.73
2022-10-12T13:19:10.125Z,7.30
2022-10-12T13:21:51.959Z,7.67
2022-10-12T13:24:57.259Z,7.73
2022-10-12T13:27:46.994Z,6.77
2022-10-12T13:30:47.294Z,9.57
2022-10-12T13:34:27.486Z,6.30
2022-10-12T13:37:12.232Z,8.90
2022-10-12T13:39:48.284Z,12.27
2022-10-12T13:42:34.599Z,7.27
2022-10-12T13:45:09.143Z,10.37
2022-10-12T13:47:43.768Z,8.43
2022-10-12T13:50:30.138Z,7.70
2022-10-12T13:52:57.832Z,17.70
2022-10-12T13:55:27.310Z,8.97
2022-10-12T13:57:55.081Z,9.43
2022-10-12T14:00:26.792Z,10.10
2022-10-12T14:03:05.069Z,6.77
2022-10-12T14:05:44.213Z,11.60
2022-10-12T14:08:26.811Z,6.50
2022-10-12T14:10:59.967Z,7.20
2022-10-12T14:13:35.366Z,11.97
2022-10-12T14:16:06.330Z,8.87
2022-10-12T14:18:54.301Z,5.70
2022-10-12T14:21:33.391Z,6.67
2022-10-12T14:24:11.041Z,7.50
2022-10-12T14:26:56.832Z,10.43
2022-10-12T14:29:46.931Z,11.30
2022-10-12T14:32:15.067Z,10.87
2022-10-12T14:35:03.494Z,7.20
2022-10-12T14:37:32.079Z,8.03
2022-10-12T14:40:36.435Z,8.43
2022-10-12T14:43:13.040Z,9.73
2022-10-12T14:45:41.649Z,7.80
2022-10-12T14:48:23.817Z,9.20
2022-10-12T14:50:52.460Z,9.13
2022-10-12T14:53:21.169Z,10.87
2022-10-12T14:55:50.975Z,11.67
2022-10-12T14:58:21.608Z,7.60
2022-10-12T15:00:49.570Z,14.60
2022-10-12T15:03:18.188Z,12.80
2022-10-12T15:05:45.863Z,9.50
2022-10-12T15:08:13.550Z,7.93
2022-10-12T15:10:41.130Z,11.47
2022-10-12T15:13:14.357Z,12.43
2022-10-12T15:15:50.904Z,12.03
2022-10-12T15:18:19.125Z,12.53
2022-10-12T15:20:49.965Z,8.27
2022-10-12T15:23:20.203Z,9.20
2022-10-12T15:25:56.840Z,12.90
2022-10-12T15:28:24.647Z,8.80
2022-10-12T15:33:43.492Z,9.87
2022-10-12T15:36:11.607Z,10.17
2022-10-12T15:38:39.806Z,12.83
2022-10-12T15:41:18.657Z,9.50
2022-10-12T15:43:46.425Z,12.43
2022-10-12T15:46:14.197Z,16.50
2022-10-12T15:48:44.034Z,13.13
2022-10-12T15:51:25.259Z,10.30
2022-10-12T15:53:55.177Z,12.80
2022-10-12T15:56:23.482Z,11.17
2022-10-12T15:58:51.369Z,8.60
2022-10-12T16:01:21.326Z,9.70
2022-10-12T16:03:50.352Z,7.10
2022-10-12T16:06:18.568Z,7.83
2022-10-12T16:08:46.219Z,9.93
2022-10-12T16:11:18.798Z,10.87
2022-10-12T16:13:55.481Z,12.00
2022-10-12T16:16:24.802Z,7.77
2022-10-12T16:18:54.101Z,10.90
2022-10-12T16:21:21.879Z,8.00
2022-10-12T16:23:49.719Z,16.53
2022-10-12T16:26:17.765Z,9.87
2022-10-12T16:28:46.014Z,10.70
2022-10-12T16:31:18.252Z,9.60
2022-10-12T16:33:46.260Z,20.53
2022-10-12T16:36:17.264Z,13.30
2022-10-12T16:38:45.699Z,9.60
2022-10-12T16:41:17.501Z,8.07
2022-10-12T16:43:46.002Z,13.60
2022-10-12T16:46:13.669Z,11.20
2022-10-12T16:48:41.362Z,12.97
2022-10-12T16:51:12.391Z,17.47
2022-10-12T16:53:42.522Z,9.50
2022-10-12T16:56:10.836Z,12.37
2022-10-12T16:58:38.404Z,10.00
2022-10-12T17:01:14.295Z,10.47
2022-10-12T17:03:42.533Z,14.50
2022-10-12T17:06:10.989Z,12.93
2022-10-12T17:08:41.951Z,11.80
2022-10-12T17:11:17.241Z,10.13
2022-10-12T17:13:48.920Z,11.30
2022-10-12T17:16:37.585Z,13.37
2022-10-12T17:19:11.180Z,10.40
2022-10-12T17:21:42.232Z,14.67
2022-10-12T17:24:14.768Z,12.60
2022-10-12T17:26:42.866Z,8.70
2022-10-12T17:29:18.449Z,10.07
2022-10-12T17:31:49.220Z,15.00
2022-10-12T17:34:30.400Z,12.07
2022-10-12T17:37:01.922Z,9.87
2022-10-12T17:39:37.093Z,14.93
2022-10-12T17:42:06.992Z,14.53
2022-10-12T17:44:35.779Z,20.30
2022-10-12T17:47:04.207Z,16.40
2022-10-12T17:49:32.437Z,17.90
2022-10-12T17:52:00.617Z,20.33
2022-10-12T17:54:28.361Z,16.13
2022-10-12T17:56:57.371Z,12.20
2022-10-12T17:59:26.600Z,15.23
2022-10-12T18:01:55.095Z,15.83
2022-10-12T18:04:22.827Z,16.60
2022-10-12T18:06:50.472Z,13.80
2022-10-12T18:09:18.307Z,20.60
2022-10-12T18:11:46.074Z,20.17
2022-10-12T18:14:13.964Z,21.40
2022-10-12T18:16:42.639Z,22.90
2022-10-12T18:19:11.781Z,21.40
2022-10-12T18:21:40.229Z,17.30
2022-10-12T18:24:16.484Z,15.67
2022-10-12T18:26:47.942Z,20.73
2022-10-12T18:29:18.362Z,18.23
2022-10-12T18:31:46.139Z,18.50
2022-10-12T18:34:13.774Z,21.70
2022-10-12T18:36:42.897Z,33.30
2022-10-12T18:39:10.678Z,22.10
2022-10-12T18:41:38.560Z,20.40
2022-10-12T18:44:06.797Z,24.03
2022-10-12T18:46:37.407Z,23.90
2022-10-12T18:49:09.438Z,24.67
2022-10-12T18:51:46.201Z,22.00
2022-10-12T18:54:17.136Z,24.10
2022-10-12T18:56:45.819Z,33.23
2022-10-12T18:59:17.925Z,40.03
2022-10-12T19:01:47.492Z,48.50
2022-10-12T19:04:15.401Z,39.50
2022-10-12T19:06:44.075Z,33.90
2022-10-12T19:09:14.688Z,33.90
2022-10-12T19:11:44.037Z,33.40
2022-10-12T19:14:15.951Z,32.33
2022-10-12T19:16:45.527Z,37.30
2022-10-12T19:19:21.184Z,29.77
2022-10-12T19:21:53.729Z,35.77
2022-10-12T19:24:22.380Z,35.07
2022-10-12T19:26:50.214Z,33.23
2022-10-12T19:29:17.956Z,24.37
2022-10-12T19:31:50.285Z,34.27
2022-10-12T19:34:22.117Z,30.47
2022-10-12T19:36:51.164Z,33.93
2022-10-12T19:39:24.334Z,31.50
2022-10-12T19:41:53.468Z,31.03
2022-10-12T19:44:21.741Z,28.93
2022-10-12T19:46:51.242Z,31.60
2022-10-12T19:49:20.044Z,27.97
2022-10-12T19:51:48.695Z,35.73
2022-10-12T19:54:16.590Z,30.73
2022-10-12T19:56:44.622Z,30.90
2022-10-12T19:59:12.945Z,25.87
2022-10-12T20:01:40.820Z,29.47
2022-10-12T20:04:12.148Z,30.53
2022-10-12T20:06:40.975Z,29.50
2022-10-12T20:09:09.902Z,26.73
2022-10-12T20:11:38.496Z,29.33
2022-10-12T20:14:07.975Z,27.23
2022-10-12T20:16:37.648Z,24.43
2022-10-12T20:19:07.365Z,30.03
2022-10-12T20:21:36.799Z,25.60
2022-10-12T20:24:07.870Z,28.30
2022-10-12T20:26:35.460Z,23.57
2022-10-12T20:29:03.089Z,28.13
2022-10-12T20:31:30.845Z,31.50
2022-10-12T20:33:58.638Z,28.17
2022-10-12T20:36:31.341Z,26.17
2022-10-12T20:39:00.377Z,26.57
2022-10-12T20:41:28.525Z,26.83
2022-10-12T20:44:01.298Z,29.20
2022-10-12T20:46:30.594Z,26.53
2022-10-12T20:49:04.273Z,24.10
2022-10-12T20:51:37.224Z,27.73
2022-10-12T20:54:08.853Z,25.50
2022-10-12T20:56:42.797Z,27.70
2022-10-12T20:59:11.808Z,22.70
2022-10-12T21:01:39.478Z,26.87
2022-10-12T21:04:07.178Z,31.73
2022-10-12T21:06:36.636Z,28.23
2022-10-12T21:09:06.538Z,31.17
2022-10-12T21:11:34.622Z,22.47
2022-10-12T21:14:02.246Z,31.90
2022-10-12T21:16:29.854Z,30.87
2022-10-12T21:18:57.736Z,37.23
2022-10-12T21:21:27.425Z,26.97
2022-10-12T21:24:01.584Z,30.57
2022-10-12T21:26:32.252Z,35.00
2022-10-12T21:29:01.091Z,29.00
2022-10-12T21:31:32.806Z,29.00
2022-10-12T21:34:08.134Z,29.03
2022-10-12T21:36:37.793Z,25.57
2022-10-12T21:39:17.429Z,28.93
2022-10-12T21:41:48.855Z,26.80
2022-10-12T21:44:17.651Z,28.87
2022-10-12T21:46:45.333Z,25.30
2022-10-12T21:49:14.077Z,25.03
2022-10-12T21:51:41.762Z,27.27
2022-10-12T21:54:09.608Z,25.33
2022-10-12T21:56:38.709Z,29.50
2022-10-12T21:59:07.633Z,28.90
2022-10-12T22:01:40.583Z,28.57
2022-10-12T22:04:15.475Z,24.17
2022-10-12T22:06:43.622Z,25.87
2022-10-12T22:09:19.212Z,25.67
2022-10-12T22:11:47.766Z,26.70
2022-10-12T22:14:24.420Z,25.50
2022-10-12T22:16:52.906Z,22.10
2022-10-12T22:19:24.226Z,24.77
2022-10-12T22:21:59.340Z,26.90
2022-10-12T22:24:32.171Z,31.63
2022-10-12T22:27:08.904Z,28.13
2022-10-12T22:29:37.727Z,27.73
2022-10-12T22:32:07.105Z,27.53
2022-10-12T22:34:36.129Z,30.60
2022-10-12T22:37:04.404Z,29.50
2022-10-12T22:39:32.662Z,29.13
2022-10-12T22:42:01.366Z,25.80
2022-10-12T22:44:32.106Z,27.30
2022-10-12T22:46:59.884Z,27.13
2022-10-12T22:49:27.694Z,32.03
2022-10-12T22:51:55.439Z,36.70
2022-10-12T22:54:23.147Z,25.13
2022-10-12T22:56:51.617Z,29.93
2022-10-12T22:59:19.195Z,29.07
2022-10-12T23:01:46.859Z,25.70
2022-10-12T23:04:14.451Z,24.07
2022-10-12T23:06:42.626Z,28.50
2022-10-12T23:09:10.437Z,31.73
2022-10-12T23:11:38.213Z,26.70
2022-10-12T23:14:06.010Z,27.70
2022-10-12T23:16:34.005Z,21.60
2022-10-12T23:19:06.414Z,27.27
2022-10-12T23:21:35.629Z,24.20
2022-10-12T23:24:06.970Z,23.00
2022-10-12T23:26:35.181Z,26.30
2022-10-12T23:29:03.042Z,28.33
2022-10-12T23:31:32.176Z,26.30
2022-10-12T23:34:06.835Z,29.33
2022-10-12T23:36:35.474Z,25.10
2022-10-12T23:39:06.041Z,30.73
2022-10-12T23:41:34.229Z,25.77
2022-10-12T23:44:01.869Z,29.13
2022-10-12T23:46:29.701Z,27.63
2022-10-12T23:49:01.031Z,26.70
2022-10-12T23:51:29.390Z,28.63
2022-10-12T23:53:57.166Z,28.50
2022-10-12T23:56:25.351Z,28.00
2022-10-12T23:58:53.479Z,27.70
